Time;durP1;ratioP1;P1;durP2;ratioP2;P2;SDS_P1;SDS_P2;PMS_P1;PMS_P2;Temp;Humidity;BMP_temperature;BMP_pressure;BME280_temperature;BME280_humidity;BME280_pressure;Samples;Min_cycle;Max_cycle;Signal;HPM_P1;HPM_P2
2022/06/21 00:00:32;;;;;;;7.78;3.17;;;;;;;10.86;100.00;101652.91;5016796;28;20112;-73
2022/06/21 00:03:04;;;;;;;8.35;3.28;;;;;;;10.79;100.00;101660.09;5033160;28;20120;-73
2022/06/21 00:05:34;;;;;;;13.02;4.18;;;;;;;10.65;100.00;101665.34;5029017;28;20056;-73
2022/06/21 00:08:01;;;;;;;11.68;2.95;;;;;;;10.58;100.00;101658.25;5037930;28;20119;-73
2022/06/21 00:10:27;;;;;;;9.77;3.55;;;;;;;10.50;100.00;101651.13;5030158;28;20116;-73
2022/06/21 00:12:52;;;;;;;13.25;4.32;;;;;;;10.45;100.00;101653.56;5036321;28;20029;-73
2022/06/21 00:15:18;;;;;;;9.23;3.72;;;;;;;10.38;100.00;101664.25;5036704;28;20041;-74
2022/06/21 00:17:46;;;;;;;10.40;3.08;;;;;;;10.32;100.00;101651.56;5037692;28;20523;-73
2022/06/21 00:20:20;;;;;;;12.10;3.20;;;;;;;10.30;100.00;101644.72;5036385;28;20049;-73
2022/06/21 00:22:46;;;;;;;7.70;2.92;;;;;;;10.25;100.00;101654.19;5042984;28;20037;-73
2022/06/21 00:25:23;;;;;;;10.23;3.10;;;;;;;10.21;100.00;101663.66;5033756;28;20480;-74
2022/06/21 00:27:48;;;;;;;14.25;3.83;;;;;;;10.21;100.00;101669.03;5034600;28;20036;-73
2022/06/21 00:30:14;;;;;;;15.13;3.13;;;;;;;10.25;100.00;101669.50;5029452;28;20029;-73
2022/06/21 00:32:40;;;;;;;8.10;3.80;;;;;;;10.26;100.00;101672.00;5036281;28;20465;-73
2022/06/21 00:35:11;;;;;;;13.75;4.07;;;;;;;10.27;100.00;101670.97;5034315;28;20034;-73
2022/06/21 00:37:37;;;;;;;14.85;4.10;;;;;;;10.27;100.00;101670.97;5037883;28;20544;-73
2022/06/21 00:40:10;;;;;;;11.40;4.38;;;;;;;10.30;100.00;101666.25;5031389;28;20060;-73
2022/06/21 00:42:36;;;;;;;17.23;4.25;;;;;;;10.30;100.00;101668.94;5030060;28;20029;-73
2022/06/21 00:45:17;;;;;;;7.88;3.70;;;;;;;10.24;100.00;101652.47;5029877;28;20036;-74
2022/06/21 00:47:48;;;;;;;9.02;3.70;;;;;;;10.14;100.00;101656.50;5040867;28;20033;-73
2022/06/21 00:50:25;;;;;;;11.18;4.63;;;;;;;10.04;100.00;101646.06;5015787;28;20025;-73
2022/06/21 00:53:05;;;;;;;7.78;3.90;;;;;;;9.94;100.00;101640.16;5037633;28;20033;-73
2022/06/21 00:55:53;;;;;;;6.75;3.83;;;;;;;9.84;100.00;101645.81;5033643;28;20434;-73
2022/06/21 00:58:21;;;;;;;9.45;4.05;;;;;;;9.75;100.00;101653.16;5039659;28;20025;-73
2022/06/21 01:00:54;;;;;;;7.70;3.60;;;;;;;9.69;100.00;101645.84;5046922;28;20035;-73
2022/06/21 01:03:36;;;;;;;12.65;4.18;;;;;;;9.64;100.00;101650.94;5034071;28;20132;-74
2022/06/21 01:06:06;;;;;;;12.25;4.18;;;;;;;9.67;100.00;101657.81;5044945;28;20116;-73
2022/06/21 01:08:36;;;;;;;7.45;3.53;;;;;;;9.64;100.00;101659.00;5032106;28;20466;-73
2022/06/21 01:11:05;;;;;;;8.82;3.33;;;;;;;9.63;100.00;101664.59;5032049;28;20477;-74
2022/06/21 01:13:33;;;;;;;11.80;4.63;;;;;;;9.61;100.00;101656.69;5033149;28;20393;-74
2022/06/21 01:15:59;;;;;;;8.25;3.60;;;;;;;9.59;100.00;101648.00;5043600;28;20029;-74
2022/06/21 01:18:25;;;;;;;12.40;4.53;;;;;;;9.60;100.00;101643.44;5038235;28;20037;-73
2022/06/21 01:20:53;;;;;;;12.88;4.10;;;;;;;9.61;100.00;101639.72;5030438;28;20051;-73
2022/06/21 01:23:33;;;;;;;8.82;3.85;;;;;;;9.59;100.00;101636.41;5035755;28;20049;-73
2022/06/21 01:26:37;;;;;;;8.98;3.90;;;;;;;9.54;100.00;101639.63;5033056;28;20044;-73
2022/06/21 01:29:06;;;;;;;10.23;3.88;;;;;;;9.44;100.00;101639.06;5029653;28;22167;-73
2022/06/21 01:31:32;;;;;;;11.63;4.72;;;;;;;9.39;100.00;101636.94;5031812;28;20116;-73
2022/06/21 01:33:57;;;;;;;9.20;4.28;;;;;;;9.30;100.00;101627.28;5030247;28;20033;-73
2022/06/21 01:36:25;;;;;;;11.27;4.68;;;;;;;9.27;100.00;101628.53;5037249;28;20413;-73
2022/06/21 01:38:55;;;;;;;13.57;4.80;;;;;;;9.22;100.00;101624.69;5035658;28;20033;-73
2022/06/21 01:41:27;;;;;;;9.07;3.95;;;;;;;9.19;100.00;101631.28;5034146;28;20033;-73
2022/06/21 01:43:55;;;;;;;10.48;4.53;;;;;;;9.18;100.00;101626.09;5037185;28;20036;-73
2022/06/21 01:46:28;;;;;;;10.55;4.88;;;;;;;9.13;100.00;101621.28;5040555;28;20397;-73
2022/06/21 01:48:55;;;;;;;12.55;4.43;;;;;;;9.06;100.00;101618.50;5045478;28;20029;-73
2022/06/21 01:51:35;;;;;;;10.27;4.20;;;;;;;9.01;100.00;101610.13;5030758;28;20097;-73
2022/06/21 01:54:03;;;;;;;8.30;3.92;;;;;;;8.96;100.00;101600.97;5045831;28;20037;-73
2022/06/21 01:56:32;;;;;;;7.78;3.50;;;;;;;8.87;100.00;101600.19;5030440;28;20108;-73
2022/06/21 01:59:11;;;;;;;9.10;3.40;;;;;;;8.79;100.00;101603.81;5059331;28;20408;-73
2022/06/21 02:01:46;;;;;;;5.82;3.20;;;;;;;8.74;100.00;101611.59;5038136;28;20025;-73
2022/06/21 02:04:15;;;;;;;8.85;3.13;;;;;;;8.65;100.00;101607.31;5038120;28;20037;-73
2022/06/21 02:06:42;;;;;;;7.40;3.55;;;;;;;8.66;100.00;101613.50;5039281;28;20082;-73
2022/06/21 02:09:14;;;;;;;13.02;4.38;;;;;;;8.65;100.00;101617.22;5022637;28;20036;-73
2022/06/21 02:11:43;;;;;;;9.18;3.95;;;;;;;8.60;100.00;101609.72;5036045;28;20025;-73
2022/06/21 02:14:30;;;;;;;6.28;3.65;;;;;;;8.59;100.00;101619.59;5015745;28;20025;-73
2022/06/21 02:17:02;;;;;;;6.18;3.60;;;;;;;8.58;100.00;101614.41;5056906;28;20528;-73
2022/06/21 02:19:48;;;;;;;8.02;3.90;;;;;;;8.54;100.00;101616.63;5037041;28;20029;-73
2022/06/21 02:22:19;;;;;;;8.85;3.45;;;;;;;8.54;100.00;101624.69;5028032;28;20037;-73
2022/06/21 02:24:45;;;;;;;8.70;3.92;;;;;;;8.54;100.00;101627.38;5031031;28;20033;-73
2022/06/21 02:27:12;;;;;;;9.15;3.72;;;;;;;8.53;100.00;101620.34;5030083;28;20025;-73
2022/06/21 02:29:40;;;;;;;7.55;3.45;;;;;;;8.51;100.00;101625.03;5018313;28;20035;-73
2022/06/21 02:32:14;;;;;;;7.57;3.22;;;;;;;8.47;100.00;101625.59;5031006;28;20026;-73
2022/06/21 02:34:40;;;;;;;7.30;3.35;;;;;;;8.44;100.00;101615.19;5013919;28;20099;-73
2022/06/21 02:37:09;;;;;;;7.80;4.13;;;;;;;8.42;100.00;101609.16;5028108;28;20381;-73
2022/06/21 02:39:36;;;;;;;6.63;3.33;;;;;;;8.38;100.00;101603.31;5029524;28;20021;-73
2022/06/21 02:42:07;;;;;;;9.63;4.10;;;;;;;8.35;100.00;101596.44;5028350;28;20025;-73
2022/06/21 02:44:42;;;;;;;8.55;4.13;;;;;;;8.31;100.00;101583.53;5031096;28;20121;-73
2022/06/21 02:47:38;;;;;;;6.00;3.38;;;;;;;8.28;100.00;101591.94;5024380;28;20033;-73
2022/06/21 02:50:26;;;;;;;7.47;3.47;;;;;;;8.21;100.00;101594.50;5032962;28;20416;-73
2022/06/21 02:52:53;;;;;;;8.00;3.75;;;;;;;8.13;100.00;101597.25;5027360;28;20045;-73
2022/06/21 02:55:52;;;;;;;5.88;3.25;;;;;;;8.12;100.00;101591.06;5032205;28;20381;-73
2022/06/21 02:58:40;;;;;;;7.43;3.85;;;;;;;8.09;100.00;101574.50;5038968;28;20079;-73
2022/06/21 03:01:18;;;;;;;7.80;3.63;;;;;;;8.06;100.00;101572.16;5013557;28;20084;-73
2022/06/21 03:03:45;;;;;;;8.52;4.03;;;;;;;8.07;100.00;101587.25;5027171;28;20021;-73
2022/06/21 03:06:11;;;;;;;5.13;4.15;;;;;;;7.99;100.00;101576.56;5033313;28;20140;-73
2022/06/21 03:08:48;;;;;;;5.03;3.65;;;;;;;7.99;100.00;101582.78;5025550;28;20087;-72
2022/06/21 03:11:14;;;;;;;5.30;3.28;;;;;;;7.95;100.00;101586.00;5035131;28;20064;-73
2022/06/21 03:13:39;;;;;;;8.05;3.60;;;;;;;7.95;100.00;101588.69;5025530;28;20037;-73
2022/06/21 03:16:11;;;;;;;8.18;3.70;;;;;;;7.96;100.00;101590.34;5034252;28;20033;-73
2022/06/21 03:18:39;;;;;;;4.93;3.25;;;;;;;7.97;100.00;101598.22;5025288;28;20400;-73
2022/06/21 03:21:05;;;;;;;5.82;3.63;;;;;;;8.01;100.00;101593.34;5032654;28;20519;-73
2022/06/21 03:23:31;;;;;;;7.15;3.50;;;;;;;8.03;100.00;101586.75;5029443;28;20037;-73
2022/06/21 03:26:02;;;;;;;6.45;3.42;;;;;;;8.06;100.00;101585.56;5034363;28;20127;-73
2022/06/21 03:28:34;;;;;;;6.13;3.33;;;;;;;8.09;100.00;101595.97;5032135;28;20152;-73
2022/06/21 03:31:13;;;;;;;4.05;2.85;;;;;;;8.09;100.00;101595.97;5014732;28;20041;-73
2022/06/21 03:33:42;;;;;;;5.47;3.50;;;;;;;8.09;100.00;101601.31;5029852;28;20071;-73
2022/06/21 03:36:11;;;;;;;6.75;3.10;;;;;;;8.08;100.00;101599.66;5033184;28;20120;-73
2022/06/21 03:38:38;;;;;;;5.60;2.75;;;;;;;8.05;100.00;101600.00;5035914;28;20060;-73
2022/06/21 03:43:51;;;;;;;4.85;3.35;;;;;;;8.06;100.00;101607.03;5034831;28;20032;-72
2022/06/21 03:46:24;;;;;;;5.15;3.60;;;;;;;8.08;100.00;101605.88;5034807;28;20112;-73
2022/06/21 03:48:54;;;;;;;7.85;3.35;;;;;;;8.11;100.00;101600.16;5037693;28;20028;-73
2022/06/21 03:51:27;;;;;;;5.82;3.63;;;;;;;8.19;100.00;101595.72;5042758;28;20024;-73
2022/06/21 03:54:31;;;;;;;7.65;4.00;;;;;;;8.24;100.00;101596.84;5053302;28;20040;-73
2022/06/21 03:57:08;;;;;;;5.13;3.50;;;;;;;8.31;100.00;101600.47;5036187;28;20037;-73
2022/06/21 03:59:39;;;;;;;6.75;3.63;;;;;;;8.39;100.00;101609.53;5035414;28;20079;-73
2022/06/21 04:02:21;;;;;;;6.32;3.58;;;;;;;8.40;100.00;101608.53;5035840;28;20025;-73
2022/06/21 04:04:53;;;;;;;8.23;4.07;;;;;;;-145.76;100.00;65039.31;5032955;28;20532;-73
2022/06/21 04:07:29;;;;;;;5.68;3.63;;;;;;;-145.76;100.00;65039.31;5033733;28;20488;-73
2022/06/21 04:10:05;;;;;;;4.78;3.33;;;;;;;-145.76;100.00;65039.31;5045999;28;20044;-73
2022/06/21 04:12:42;;;;;;;6.28;3.35;;;;;;;-145.76;100.00;65039.31;5029925;28;20448;-73
2022/06/21 04:15:13;;;;;;;5.45;3.22;;;;;;;-145.76;100.00;65039.31;5035135;28;20037;-73
2022/06/21 04:17:46;;;;;;;7.72;3.80;;;;;;;-145.76;100.00;65039.31;5036465;28;20021;-73
2022/06/21 04:20:17;;;;;;;6.78;3.22;;;;;;;-145.76;100.00;65039.31;5042192;28;20049;-73
2022/06/21 04:22:49;;;;;;;7.38;3.88;;;;;;;-145.76;100.00;65039.31;5036673;28;20115;-74
2022/06/21 04:25:33;;;;;;;7.97;3.58;;;;;;;-145.76;100.00;65039.31;5036443;28;20037;-74
2022/06/21 04:28:00;;;;;;;;;;;;;;;-145.76;100.00;65039.31;5041091;28;20034;-73
2022/06/21 04:30:31;;;;;;;6.28;4.50;;;;;;;-145.76;100.00;65039.31;5036861;28;20316;-73
2022/06/21 04:33:01;;;;;;;8.40;4.68;;;;;;;-145.76;100.00;65039.31;5040832;28;20044;-73
2022/06/21 04:35:37;;;;;;;5.65;4.53;;;;;;;-145.76;100.00;65039.31;5037056;28;20025;-73
2022/06/21 04:38:18;;;;;;;6.18;4.05;;;;;;;-145.76;100.00;65039.31;5040775;28;20383;-73
2022/06/21 04:40:59;;;;;;;9.20;4.82;;;;;;;-145.76;100.00;65039.31;5030879;28;20512;-73
2022/06/21 04:43:36;;;;;;;8.52;4.93;;;;;;;-145.76;100.00;65039.31;5030817;28;20034;-73
2022/06/21 04:46:18;;;;;;;11.07;4.32;;;;;;;-145.76;100.00;65039.31;5031407;28;20118;-73
2022/06/21 04:49:06;;;;;;;10.13;4.93;;;;;;;-145.76;100.00;65039.31;5032136;28;20120;-73
2022/06/21 04:51:52;;;;;;;10.38;4.82;;;;;;;-145.76;100.00;65039.31;5033541;28;20546;-73
2022/06/21 04:54:22;;;;;;;10.55;5.20;;;;;;;-145.76;100.00;65039.31;5036203;28;20035;-73
2022/06/21 04:57:03;;;;;;;9.18;4.80;;;;;;;-145.76;100.00;65039.31;5052947;28;20488;-73
2022/06/21 04:59:35;;;;;;;6.95;4.55;;;;;;;-145.76;100.00;65039.31;5052993;28;20038;-73
2022/06/21 05:02:01;;;;;;;12.40;5.78;;;;;;;-145.76;100.00;65039.31;5051654;28;20021;-73
2022/06/21 05:04:38;;;;;;;11.00;5.85;;;;;;;-145.76;100.00;65039.31;5034864;28;20047;-73
2022/06/21 05:07:15;;;;;;;9.20;5.53;;;;;;;-145.76;100.00;65039.31;5051773;28;20108;-73
2022/06/21 05:09:41;;;;;;;11.30;5.90;;;;;;;-145.76;100.00;65039.31;5051627;28;20056;-73
2022/06/21 05:12:30;;;;;;;7.97;5.28;;;;;;;-145.76;100.00;65039.31;5051538;28;20086;-73
2022/06/21 05:15:01;;;;;;;15.38;7.03;;;;;;;-145.76;100.00;65039.31;5052856;28;20123;-73
2022/06/21 05:17:27;;;;;;;11.68;6.53;;;;;;;-145.76;100.00;65039.31;5051575;28;20029;-73
2022/06/21 05:19:55;;;;;;;11.63;6.03;;;;;;;-145.76;100.00;65039.31;5051210;28;20551;-73
2022/06/21 05:22:21;;;;;;;10.82;6.35;;;;;;;-145.76;100.00;65039.31;5067999;28;20040;-73
2022/06/21 05:24:47;;;;;;;14.27;7.22;;;;;;;-145.76;100.00;65039.31;5038957;28;20033;-73
2022/06/21 05:27:19;;;;;;;10.63;6.82;;;;;;;-145.76;100.00;65039.31;5032342;28;20040;-73
2022/06/21 05:29:50;;;;;;;10.23;6.00;;;;;;;-145.76;100.00;65039.31;5031078;28;20382;-73
2022/06/21 05:32:25;;;;;;;15.90;7.18;;;;;;;-145.76;100.00;65039.31;5014553;28;20025;-73
2022/06/21 05:34:54;;;;;;;22.40;7.07;;;;;;;-145.76;100.00;65039.31;5031423;28;20120;-73
2022/06/21 05:37:29;;;;;;;8.98;5.82;;;;;;;-145.76;100.00;65039.31;5031068;28;20382;-73
2022/06/21 05:39:55;;;;;;;10.15;6.32;;;;;;;-145.76;100.00;65039.31;5030844;28;20098;-73
2022/06/21 05:42:22;;;;;;;16.23;6.45;;;;;;;-145.76;100.00;65039.31;5014002;28;20057;-73
2022/06/21 05:44:50;;;;;;;14.18;6.68;;;;;;;-145.76;100.00;65039.31;5030865;28;20693;-73
2022/06/21 05:47:40;;;;;;;15.98;6.28;;;;;;;-145.76;100.00;65039.31;5030656;28;20381;-73
2022/06/21 05:50:07;;;;;;;13.85;6.72;;;;;;;-145.76;100.00;65039.31;5031708;28;20045;-73
2022/06/21 05:52:36;;;;;;;20.75;6.63;;;;;;;-145.76;100.00;65039.31;5030629;28;20034;-73
2022/06/21 05:55:04;;;;;;;15.00;6.53;;;;;;;-145.76;100.00;65039.31;5026403;28;20033;-73
2022/06/21 05:58:00;;;;;;;13.82;7.18;;;;;;;-145.76;100.00;65039.31;5042976;28;20114;-73
2022/06/21 06:00:44;;;;;;;10.77;6.15;;;;;;;-145.76;100.00;65039.31;5026407;28;20183;-73
2022/06/21 06:03:15;;;;;;;15.10;5.57;;;;;;;-145.76;100.00;65039.31;5031168;28;20069;-73
2022/06/21 06:05:41;;;;;;;21.00;5.20;;;;;;;-145.76;100.00;65039.31;5029961;28;20044;-73
2022/06/21 06:08:11;;;;;;;12.48;4.40;;;;;;;-145.76;100.00;65039.31;5031496;28;20028;-73
2022/06/21 06:10:38;;;;;;;9.07;3.60;;;;;;;-145.76;100.00;65039.31;5030313;28;20069;-73
2022/06/21 06:13:14;;;;;;;16.80;4.68;;;;;;;-145.76;100.00;65039.31;5030335;28;20033;-73
2022/06/21 06:15:45;;;;;;;10.63;4.22;;;;;;;-145.76;100.00;65039.31;5030136;28;20036;-73
2022/06/21 06:18:17;;;;;;;13.63;4.68;;;;;;;-145.76;100.00;65039.31;5031510;28;20025;-73
2022/06/21 06:20:59;;;;;;;13.40;3.85;;;;;;;-145.76;100.00;65039.31;5029967;28;20513;-73
2022/06/21 06:23:32;;;;;;;9.73;3.78;;;;;;;-145.76;100.00;65039.31;5033969;28;20124;-73
2022/06/21 06:26:07;;;;;;;11.43;4.13;;;;;;;-145.76;100.00;65039.31;5049563;28;20041;-73
2022/06/21 06:28:39;;;;;;;12.55;3.35;;;;;;;-145.76;100.00;65039.31;5050224;28;20085;-73
2022/06/21 06:31:18;;;;;;;11.05;3.05;;;;;;;-145.76;100.00;65039.31;5049947;28;20082;-73
2022/06/21 06:33:47;;;;;;;14.30;3.17;;;;;;;-145.76;100.00;65039.31;5050872;28;20029;-73
2022/06/21 06:36:16;;;;;;;10.55;2.75;;;;;;;-145.76;100.00;65039.31;5036107;28;20033;-73
2022/06/21 06:38:42;;;;;;;8.00;2.15;;;;;;;-145.76;100.00;65039.31;5031355;28;20385;-73
2022/06/21 06:41:12;;;;;;;14.98;2.47;;;;;;;-145.76;100.00;65039.31;5031074;28;20029;-73
2022/06/21 06:43:43;;;;;;;6.90;2.35;;;;;;;-145.76;100.00;65039.31;5029806;28;20022;-73
2022/06/21 06:46:22;;;;;;;10.68;3.22;;;;;;;-145.76;100.00;65039.31;5029898;28;20445;-73
2022/06/21 06:48:48;;;;;;;12.20;2.58;;;;;;;-145.76;100.00;65039.31;5029582;28;20029;-73
2022/06/21 06:51:47;;;;;;;10.27;2.20;;;;;;;-145.76;100.00;65039.31;5029939;28;20039;-73
2022/06/21 06:54:19;;;;;;;12.05;2.58;;;;;;;-145.76;100.00;65039.31;5014888;28;20069;-73
2022/06/21 06:57:11;;;;;;;11.20;2.67;;;;;;;-145.76;100.00;65039.31;5029712;28;20029;-73
2022/06/21 06:59:38;;;;;;;8.18;1.88;;;;;;;-145.76;100.00;65039.31;5029154;28;20045;-73
2022/06/21 07:02:22;;;;;;;5.75;1.70;;;;;;;-145.76;100.00;65039.31;5013032;28;20017;-73
2022/06/21 07:04:56;;;;;;;9.48;1.80;;;;;;;-145.76;100.00;65039.31;5029089;28;20037;-73
2022/06/21 07:07:32;;;;;;;7.80;1.88;;;;;;;-145.76;100.00;65039.31;5029236;28;20036;-73
2022/06/21 07:10:03;;;;;;;11.68;2.22;;;;;;;-145.76;100.00;65039.31;5029441;28;20360;-73
2022/06/21 07:12:30;;;;;;;9.45;1.98;;;;;;;-145.76;100.00;65039.31;5030626;28;20033;-73
2022/06/21 07:14:56;;;;;;;11.73;2.03;;;;;;;-145.76;100.00;65039.31;5029722;28;20025;-74
2022/06/21 07:17:28;;;;;;;6.05;1.77;;;;;;;-145.76;100.00;65039.31;5030185;28;20109;-74
2022/06/21 07:19:55;;;;;;;6.63;1.65;;;;;;;-145.76;100.00;65039.31;5029532;28;20037;-73
2022/06/21 07:22:23;;;;;;;11.13;2.08;;;;;;;-145.76;100.00;65039.31;5029493;28;20036;-73
2022/06/21 07:24:56;;;;;;;9.82;2.03;;;;;;;-145.76;100.00;65039.31;5029468;28;20489;-73
2022/06/21 07:27:23;;;;;;;6.25;2.17;;;;;;;-145.76;100.00;65039.31;5029385;28;20033;-73
2022/06/21 07:29:58;;;;;;;8.93;1.65;;;;;;;-145.76;100.00;65039.31;5030526;28;20033;-73
2022/06/21 07:32:27;;;;;;;9.57;1.95;;;;;;;-145.76;100.00;65039.31;5029525;28;20025;-74
2022/06/21 07:35:05;;;;;;;9.70;1.80;;;;;;;-145.76;100.00;65039.31;5029320;28;20026;-74
2022/06/21 07:37:36;;;;;;;9.57;1.73;;;;;;;-145.76;100.00;65039.31;5030698;28;20029;-74
2022/06/21 07:40:08;;;;;;;8.85;1.63;;;;;;;-145.76;100.00;65039.31;5033149;28;20037;-74
2022/06/21 07:42:39;;;;;;;8.95;2.10;;;;;;;-145.76;100.00;65039.31;5027032;28;20402;-74
2022/06/21 07:45:15;;;;;;;7.25;1.40;;;;;;;-145.76;100.00;65039.31;5026740;28;20386;-74
2022/06/21 07:47:50;;;;;;;6.60;1.42;;;;;;;-145.76;100.00;65039.31;5026725;28;20029;-74
2022/06/21 07:50:35;;;;;;;8.93;1.92;;;;;;;-145.76;100.00;65039.31;5028646;28;20036;-74
2022/06/21 07:53:20;;;;;;;12.98;1.77;;;;;;;-145.76;100.00;65039.31;5026913;28;20048;-74
2022/06/21 07:55:53;;;;;;;7.90;1.55;;;;;;;-145.76;100.00;65039.31;5026935;28;20053;-74
2022/06/21 07:58:33;;;;;;;8.63;1.95;;;;;;;-145.76;100.00;65039.31;5027016;28;20033;-74
2022/06/21 08:06:41;;;;;;;10.05;1.75;;;;;;;-145.76;100.00;65039.31;5046661;28;20029;-74
2022/06/21 08:09:15;;;;;;;6.78;1.42;;;;;;;-145.76;100.00;65039.31;5045946;28;20111;-74
2022/06/21 08:11:43;;;;;;;7.47;1.98;;;;;;;-145.76;100.00;65039.31;5046095;28;20037;-74
2022/06/21 08:14:12;;;;;;;7.85;1.80;;;;;;;-145.76;100.00;65039.31;5038985;28;20079;-74
2022/06/21 08:16:45;;;;;;;3.97;1.00;;;;;;;-145.76;100.00;65039.31;5029190;28;20433;-74
2022/06/21 08:19:18;;;;;;;5.93;1.00;;;;;;;-145.76;100.00;65039.31;5046339;28;20120;-74
2022/06/21 08:22:14;;;;;;;9.75;1.80;;;;;;;-145.76;100.00;65039.31;5029513;28;20045;-74
2022/06/21 08:24:52;;;;;;;7.97;1.48;;;;;;;-145.76;100.00;65039.31;5013228;28;24150;-74
2022/06/21 08:27:46;;;;;;;6.70;1.77;;;;;;;-145.76;100.00;65039.31;5046209;28;20388;-74
2022/06/21 08:30:14;;;;;;;9.57;1.75;;;;;;;-145.76;100.00;65039.31;5047730;28;20037;-74
2022/06/21 08:33:00;;;;;;;8.23;1.95;;;;;;;-145.76;100.00;65039.31;5039210;28;20072;-74
2022/06/21 08:35:29;;;;;;;6.43;1.25;;;;;;;-145.76;100.00;65039.31;5023025;28;20021;-74
2022/06/21 08:38:05;;;;;;;5.32;1.50;;;;;;;-145.76;100.00;65039.31;5027580;28;20041;-75
2022/06/21 08:40:51;;;;;;;7.43;1.45;;;;;;;-145.76;100.00;65039.31;5009271;28;20060;-75
2022/06/21 08:43:38;;;;;;;5.35;1.40;;;;;;;-145.76;100.00;65039.31;5027655;28;20088;-75
2022/06/21 08:46:13;;;;;;;7.55;1.27;;;;;;;-145.76;100.00;65039.31;5007195;28;20080;-75
2022/06/21 08:48:58;;;;;;;6.35;1.52;;;;;;;-145.76;100.00;65039.31;5005160;28;20030;-75
2022/06/21 08:51:45;;;;;;;7.63;1.25;;;;;;;-145.76;100.00;65039.31;5005845;28;20038;-75
2022/06/21 08:54:28;;;;;;;8.43;1.67;;;;;;;-145.76;100.00;65039.31;4989806;28;20397;-75
2022/06/21 08:57:03;;;;;;;5.15;1.23;;;;;;;-145.76;100.00;65039.31;5005925;28;20040;-75
2022/06/21 08:59:37;;;;;;;5.00;1.85;;;;;;;-145.76;100.00;65039.31;5006009;28;20123;-75
2022/06/21 09:02:06;;;;;;;6.97;1.65;;;;;;;-145.76;100.00;65039.31;5009071;28;20533;-75
2022/06/21 09:04:59;;;;;;;6.70;1.30;;;;;;;-145.76;100.00;65039.31;5026861;28;20112;-75
2022/06/21 09:07:40;;;;;;;7.72;1.48;;;;;;;-145.76;100.00;65039.31;5027072;28;20037;-75
2022/06/21 09:10:37;;;;;;;7.10;1.45;;;;;;;-145.76;100.00;65039.31;5025563;28;20108;-75
2022/06/21 09:13:18;;;;;;;6.80;1.30;;;;;;;-145.76;100.00;65039.31;5025258;28;20037;-75
2022/06/21 09:16:09;;;;;;;7.72;1.33;;;;;;;-145.76;100.00;65039.31;5026667;28;20035;-75
2022/06/21 09:18:47;;;;;;;5.18;1.58;;;;;;;-145.76;100.00;65039.31;5026558;28;20056;-75
2022/06/21 09:21:43;;;;;;;5.13;1.35;;;;;;;-145.76;100.00;65039.31;5025259;28;20045;-75
2022/06/21 09:24:19;;;;;;;6.75;1.65;;;;;;;-145.76;100.00;65039.31;5026674;28;20421;-74
2022/06/21 09:26:51;;;;;;;5.93;1.40;;;;;;;-145.76;100.00;65039.31;5025159;28;20025;-75
2022/06/21 09:29:29;;;;;;;5.20;1.20;;;;;;;-145.76;100.00;65039.31;5008716;28;20026;-75
2022/06/21 09:32:10;;;;;;;5.07;1.20;;;;;;;-145.76;100.00;65039.31;5041779;28;20127;-75
2022/06/21 09:34:48;;;;;;;4.95;1.58;;;;;;;-145.76;100.00;65039.31;5026339;28;20076;-75
2022/06/21 09:37:33;;;;;;;5.80;1.60;;;;;;;-145.76;100.00;65039.31;5025406;28;20087;-75
2022/06/21 09:40:17;;;;;;;5.43;1.17;;;;;;;-145.76;100.00;65039.31;5026337;28;20517;-75
2022/06/21 09:42:49;;;;;;;7.93;1.50;;;;;;;-145.76;100.00;65039.31;5024706;28;20489;-75
2022/06/21 09:45:35;;;;;;;4.88;1.42;;;;;;;-145.76;100.00;65039.31;5024937;28;20022;-75
2022/06/21 09:48:13;;;;;;;4.28;1.08;;;;;;;-145.76;100.00;65039.31;5008126;28;20091;-75
2022/06/21 09:51:07;;;;;;;10.80;1.27;;;;;;;-145.76;100.00;65039.31;5022098;28;20029;-75
2022/06/21 09:53:38;;;;;;;5.43;1.10;;;;;;;-145.76;100.00;65039.31;5007461;28;20551;-75
2022/06/21 09:56:37;;;;;;;6.43;1.20;;;;;;;-145.76;100.00;65039.31;5008142;28;20363;-74
2022/06/21 09:59:10;;;;;;;3.25;0.90;;;;;;;-145.76;100.00;65039.31;5026168;28;20438;-75
2022/06/21 10:01:50;;;;;;;5.25;1.55;;;;;;;-145.76;100.00;65039.31;5008235;28;20037;-75
2022/06/21 10:04:59;;;;;;;4.93;1.27;;;;;;;-145.76;100.00;65039.31;5044269;28;20033;-75
2022/06/21 10:07:38;;;;;;;4.45;1.15;;;;;;;-145.76;100.00;65039.31;5042692;28;20076;-75
2022/06/21 10:10:23;;;;;;;4.63;1.20;;;;;;;-145.76;100.00;65039.31;5044104;28;20032;-74
2022/06/21 10:13:03;;;;;;;7.13;1.23;;;;;;;-145.76;100.00;65039.31;5044067;28;20119;-75
2022/06/21 10:15:49;;;;;;;3.70;1.00;;;;;;;-145.76;100.00;65039.31;5045412;28;20566;-75
2022/06/21 10:18:18;;;;;;;3.38;1.00;;;;;;;-145.76;100.00;65039.31;5043872;28;20041;-75
2022/06/21 10:21:14;;;;;;;8.02;1.05;;;;;;;-145.76;100.00;65039.31;5043567;28;20051;-75
2022/06/21 10:23:53;;;;;;;4.20;1.33;;;;;;;-145.76;100.00;65039.31;5046034;28;20025;-75
2022/06/21 10:26:32;;;;;;;3.83;1.05;;;;;;;-145.76;100.00;65039.31;5045676;28;20093;-75
2022/06/21 10:29:23;;;;;;;4.43;1.08;;;;;;;-145.76;100.00;65039.31;5043820;28;20067;-75
2022/06/21 10:32:16;;;;;;;8.50;1.42;;;;;;;-145.76;100.00;65039.31;5039156;28;20065;-75
2022/06/21 10:34:49;;;;;;;4.22;0.85;;;;;;;-145.76;100.00;65039.31;5024070;28;20025;-75
2022/06/21 10:37:18;;;;;;;6.72;1.20;;;;;;;-145.76;100.00;65039.31;5025455;28;20109;-75
2022/06/21 10:39:55;;;;;;;3.70;1.23;;;;;;;-145.76;100.00;65039.31;5025393;28;20132;-75
2022/06/21 10:42:51;;;;;;;4.25;1.45;;;;;;;-145.76;100.00;65039.31;5025227;28;20053;-75
2022/06/21 10:45:22;;;;;;;4.93;1.25;;;;;;;-145.76;100.00;65039.31;5026056;28;20485;-75
2022/06/21 10:48:15;;;;;;;5.72;1.30;;;;;;;-145.76;100.00;65039.31;5023705;28;20093;-74
2022/06/21 10:50:56;;;;;;;5.35;1.35;;;;;;;-145.76;100.00;65039.31;5025351;28;20045;-75
2022/06/21 10:53:38;;;;;;;4.28;1.00;;;;;;;-145.76;100.00;65039.31;5025151;28;20382;-75
2022/06/21 11:02:48;;;;;;;4.82;0.90;;;;;;;-145.76;100.00;65039.31;5044867;28;20393;-75
2022/06/21 11:05:26;;;;;;;3.40;1.15;;;;;;;-145.76;100.00;65039.31;5043451;28;20021;-75
2022/06/21 11:08:13;;;;;;;5.18;1.20;;;;;;;-145.76;100.00;65039.31;5045273;28;20033;-74
2022/06/21 11:10:45;;;;;;;3.80;1.10;;;;;;;-145.76;100.00;65039.31;5043666;28;20029;-74
2022/06/21 11:13:14;;;;;;;4.55;1.20;;;;;;;-145.76;100.00;65039.31;5044069;28;20029;-75
2022/06/21 11:15:45;;;;;;;3.50;1.00;;;;;;;-145.76;100.00;65039.31;5026356;28;20021;-75
2022/06/21 11:18:21;;;;;;;4.00;0.98;;;;;;;-145.76;100.00;65039.31;5043908;28;20146;-75
2022/06/21 11:21:24;;;;;;;5.93;1.23;;;;;;;-145.76;100.00;65039.31;5043847;28;20098;-74
2022/06/21 11:24:15;;;;;;;2.45;0.90;;;;;;;-145.76;100.00;65039.31;5044730;28;20132;-75
2022/06/21 11:26:59;;;;;;;4.88;1.08;;;;;;;-145.76;100.00;65039.31;5046067;28;20033;-75
2022/06/21 11:29:55;;;;;;;5.43;1.08;;;;;;;-145.76;100.00;65039.31;5027627;28;20037;-75
2022/06/21 11:32:36;;;;;;;3.45;0.75;;;;;;;-145.76;100.00;65039.31;5025050;28;20041;-74
2022/06/21 11:35:29;;;;;;;3.83;1.13;;;;;;;-145.76;100.00;65039.31;5022901;28;20025;-75
2022/06/21 11:38:33;;;;;;;3.03;0.88;;;;;;;-145.76;100.00;65039.31;5024609;28;20033;-75
2022/06/21 11:41:04;;;;;;;4.03;0.90;;;;;;;-145.76;100.00;65039.31;5022747;28;20029;-75
2022/06/21 11:43:42;;;;;;;6.15;1.67;;;;;;;-145.76;100.00;65039.31;5024447;28;20029;-74
2022/06/21 11:46:30;;;;;;;5.07;1.15;;;;;;;-145.76;100.00;65039.31;5022431;28;20029;-74
2022/06/21 11:49:07;;;;;;;4.80;1.10;;;;;;;-145.76;100.00;65039.31;5022822;28;20087;-74
2022/06/21 11:51:48;;;;;;;3.25;0.95;;;;;;;-145.76;100.00;65039.31;5024722;28;20517;-75
2022/06/21 11:54:17;;;;;;;3.15;1.00;;;;;;;-145.76;100.00;65039.31;5024920;28;20470;-75
2022/06/21 11:57:21;;;;;;;3.28;0.93;;;;;;;-145.76;100.00;65039.31;5022855;28;20052;-75
2022/06/21 12:00:24;;;;;;;5.38;0.93;;;;;;;-145.76;100.00;65039.31;4979899;28;20038;-75
2022/06/21 12:02:57;;;;;;;;;;;;;;;-145.76;100.00;65039.31;5001022;28;20236;-75
2022/06/21 12:05:28;;;;;;;3.63;0.85;;;;;;;-145.76;100.00;65039.31;5022893;28;19909;-75